Time;durP1;ratioP1;P1;durP2;ratioP2;P2;SDS_P1;SDS_P2;PMS_P1;PMS_P2;Temp;Humidity;BMP_temperature;BMP_pressure;BME280_temperature;BME280_humidity;BME280_pressure;Samples;Min_cycle;Max_cycle;Signal;HPM_P1;HPM_P2
2023/11/04 00:00:05;;;;;;;3.92;1.77;;;;;;;-145.87;100.00;54973.53;2091497;28;20067;-55
2023/11/04 00:01:07;;;;;;;4.13;1.85;;;;;;;-145.87;100.00;54973.53;2091855;28;20044;-56
2023/11/04 00:02:09;;;;;;;3.67;2.03;;;;;;;-145.87;100.00;54973.53;2091741;28;20052;-55
2023/11/04 00:03:10;;;;;;;4.60;1.80;;;;;;;-145.87;100.00;54973.53;2091836;28;20397;-54
2023/11/04 00:04:11;;;;;;;3.28;1.65;;;;;;;-145.87;100.00;54973.53;2091746;28;20055;-55
2023/11/04 00:05:12;;;;;;;3.50;2.10;;;;;;;-145.87;100.00;54973.53;2091669;28;20045;-57
2023/11/04 00:06:13;;;;;;;5.05;2.17;;;;;;;-145.87;100.00;54973.53;2091754;28;20051;-56
2023/11/04 00:07:16;;;;;;;3.00;1.58;;;;;;;-145.87;100.00;54973.53;2091123;28;20428;-55
2023/11/04 00:08:17;;;;;;;4.05;2.10;;;;;;;-145.87;100.00;54973.53;2090441;28;20057;-57
2023/11/04 00:09:18;;;;;;;3.58;1.80;;;;;;;-145.87;100.00;54973.53;2091510;28;20056;-55
2023/11/04 00:10:21;;;;;;;2.83;1.70;;;;;;;-145.87;100.00;54973.53;2091733;28;20049;-55
2023/11/04 00:11:22;;;;;;;2.50;1.80;;;;;;;-145.87;100.00;54973.53;2091689;28;20049;-55
2023/11/04 00:12:23;;;;;;;4.47;2.05;;;;;;;-145.87;100.00;54973.53;2091724;28;20041;-56
2023/11/04 00:13:24;;;;;;;3.13;1.63;;;;;;;-145.87;100.00;54973.53;2091787;28;20044;-56
2023/11/04 00:14:25;;;;;;;4.80;2.10;;;;;;;-145.87;100.00;54973.53;2091949;28;20465;-55
2023/11/04 00:15:27;;;;;;;3.53;2.15;;;;;;;-145.87;100.00;54973.53;2091569;28;20048;-57
2023/11/04 00:16:28;;;;;;;4.00;1.58;;;;;;;-145.87;100.00;54973.53;2090938;28;20505;-56
2023/11/04 00:17:29;;;;;;;3.38;2.05;;;;;;;-145.87;100.00;54973.53;2091475;28;20048;-55
2023/11/04 00:18:30;;;;;;;4.53;2.40;;;;;;;-145.87;100.00;54973.53;2091950;28;20045;-57
2023/11/04 00:19:31;;;;;;;4.82;2.00;;;;;;;-145.87;100.00;54973.53;2091529;28;20037;-57
2023/11/04 00:20:32;;;;;;;2.85;1.70;;;;;;;-145.87;100.00;54973.53;2091579;28;20507;-57
2023/11/04 00:21:33;;;;;;;3.38;2.00;;;;;;;-145.87;100.00;54973.53;2091547;28;20049;-57
2023/11/04 00:22:34;;;;;;;3.85;1.70;;;;;;;-145.87;100.00;54973.53;2091391;28;20040;-55
2023/11/04 00:23:36;;;;;;;4.72;1.90;;;;;;;-145.87;100.00;54973.53;2091743;28;20056;-55
2023/11/04 00:24:37;;;;;;;4.05;2.08;;;;;;;-145.87;100.00;54973.53;2091442;28;20040;-54
2023/11/04 00:25:39;;;;;;;7.53;2.47;;;;;;;-145.87;100.00;54973.53;2091589;28;20037;-55
2023/11/04 00:26:40;;;;;;;6.22;2.35;;;;;;;-145.87;100.00;54973.53;2091709;28;20036;-55
2023/11/04 00:27:41;;;;;;;4.55;2.10;;;;;;;-145.87;100.00;54973.53;2091668;28;20064;-56
2023/11/04 00:28:42;;;;;;;2.92;1.90;;;;;;;-145.87;100.00;54973.53;2091214;28;20045;-55
2023/11/04 00:29:43;;;;;;;3.35;1.90;;;;;;;-145.87;100.00;54973.53;2091166;28;20056;-55
2023/11/04 00:30:44;;;;;;;4.05;1.90;;;;;;;-145.87;100.00;54973.53;2091460;28;20044;-55
2023/11/04 00:31:46;;;;;;;3.60;1.88;;;;;;;-145.87;100.00;54973.53;2091505;28;20056;-55
2023/11/04 00:32:48;;;;;;;2.80;1.55;;;;;;;-145.87;100.00;54973.53;2091105;28;20056;-55
2023/11/04 00:33:49;;;;;;;4.30;2.45;;;;;;;-145.87;100.00;54973.53;2090895;28;20036;-55
2023/11/04 00:34:50;;;;;;;2.80;1.80;;;;;;;-145.87;100.00;54973.53;2091593;28;20040;-55
2023/11/04 00:35:51;;;;;;;4.82;2.10;;;;;;;-145.87;100.00;54973.53;2091824;28;20049;-55
2023/11/04 00:36:52;;;;;;;3.20;1.83;;;;;;;-145.87;100.00;54973.53;2091425;28;20056;-56
2023/11/04 00:37:53;;;;;;;4.60;1.90;;;;;;;-145.87;100.00;54973.53;2091464;28;20469;-56
2023/11/04 00:38:54;;;;;;;3.60;1.90;;;;;;;-145.87;100.00;54973.53;2090604;28;20101;-55
2023/11/04 00:39:56;;;;;;;3.30;1.77;;;;;;;-145.87;100.00;54973.53;2091005;28;20041;-55
2023/11/04 00:40:57;;;;;;;4.57;1.90;;;;;;;-145.87;100.00;54973.53;2090856;28;20055;-55
2023/11/04 00:41:58;;;;;;;3.97;1.80;;;;;;;-145.87;100.00;54973.53;2091652;28;20053;-55
2023/11/04 00:43:00;;;;;;;3.97;1.92;;;;;;;-145.87;100.00;54973.53;2091410;28;20056;-55
2023/11/04 00:44:01;;;;;;;4.78;1.55;;;;;;;-145.87;100.00;54973.53;2091385;28;20053;-55
2023/11/04 00:45:03;;;;;;;4.30;2.00;;;;;;;-145.87;100.00;54973.53;2091545;28;20052;-54
2023/11/04 00:46:05;;;;;;;5.22;2.13;;;;;;;-145.87;100.00;54973.53;2091099;28;20064;-55
2023/11/04 00:47:06;;;;;;;4.00;2.38;;;;;;;-145.87;100.00;54973.53;2091365;28;20045;-55
2023/11/04 00:48:07;;;;;;;3.45;1.90;;;;;;;-145.87;100.00;54973.53;2091191;28;20049;-57
2023/11/04 00:49:08;;;;;;;3.03;2.03;;;;;;;-145.87;100.00;54973.53;2091368;28;20508;-56
2023/11/04 00:50:10;;;;;;;4.55;2.10;;;;;;;-145.87;100.00;54973.53;2090063;28;20049;-57
2023/11/04 00:51:11;;;;;;;3.15;1.92;;;;;;;-145.87;100.00;54973.53;2090740;28;20092;-56
2023/11/04 00:52:13;;;;;;;3.92;2.10;;;;;;;-145.87;100.00;54973.53;2090816;28;20056;-55
2023/11/04 00:53:14;;;;;;;5.53;2.03;;;;;;;-145.87;100.00;54973.53;2090616;28;20049;-55
2023/11/04 00:54:15;;;;;;;2.75;1.70;;;;;;;-145.87;100.00;54973.53;2091369;28;20049;-56
2023/11/04 00:55:17;;;;;;;3.13;1.80;;;;;;;-145.87;100.00;54973.53;2090692;28;20056;-55
2023/11/04 00:56:18;;;;;;;4.05;2.13;;;;;;;-145.87;100.00;54973.53;2090669;28;20053;-55
2023/11/04 00:57:19;;;;;;;3.65;2.42;;;;;;;-145.87;100.00;54973.53;2082452;28;20057;-55
2023/11/04 00:58:20;;;;;;;5.35;1.90;;;;;;;-145.87;100.00;54973.53;2090763;28;20513;-55
2023/11/04 00:59:21;;;;;;;2.97;1.63;;;;;;;-145.87;100.00;54973.53;2091277;28;20056;-55
2023/11/04 01:00:25;;;;;;;5.25;2.25;;;;;;;-145.87;100.00;54973.53;2082026;28;20509;-55
2023/11/04 01:01:27;;;;;;;3.50;2.28;;;;;;;-145.87;100.00;54973.53;2082738;28;20049;-55
2023/11/04 01:02:28;;;;;;;3.60;2.10;;;;;;;-145.87;100.00;54973.53;2091379;28;20049;-56
2023/11/04 01:03:30;;;;;;;3.30;2.30;;;;;;;-145.87;100.00;54973.53;2091299;28;20091;-55
2023/11/04 01:04:31;;;;;;;4.95;2.20;;;;;;;-145.87;100.00;54973.53;2090948;28;20050;-55
2023/11/04 01:05:33;;;;;;;3.28;2.00;;;;;;;-145.87;100.00;54973.53;2091325;28;20075;-55
2023/11/04 01:06:34;;;;;;;6.18;2.20;;;;;;;-145.87;100.00;54973.53;2091163;28;20044;-55
2023/11/04 01:07:35;;;;;;;5.32;2.20;;;;;;;-145.87;100.00;54973.53;2091114;28;20053;-55
2023/11/04 01:08:38;;;;;;;3.33;2.17;;;;;;;-145.87;100.00;54973.53;2090911;28;20048;-55
2023/11/04 01:09:39;;;;;;;3.58;2.10;;;;;;;-145.87;100.00;54973.53;2091085;28;20044;-55
2023/11/04 01:10:40;;;;;;;6.40;2.30;;;;;;;-145.87;100.00;54973.53;2090951;28;20036;-55
2023/11/04 01:11:44;;;;;;;4.95;2.60;;;;;;;-145.87;100.00;54973.53;2091150;28;20059;-55
2023/11/04 01:12:45;;;;;;;4.75;2.60;;;;;;;-145.87;100.00;54973.53;2089492;28;20467;-56
2023/11/04 01:13:46;;;;;;;4.30;2.45;;;;;;;-145.87;100.00;54973.53;2082555;28;20049;-55
2023/11/04 01:14:48;;;;;;;5.35;2.50;;;;;;;-145.87;100.00;54973.53;2090727;28;20045;-55
2023/11/04 01:15:51;;;;;;;4.22;2.35;;;;;;;-145.87;100.00;54973.53;2091182;28;20511;-55
2023/11/04 01:16:52;;;;;;;4.15;2.67;;;;;;;-145.87;100.00;54973.53;2091176;28;20386;-55
2023/11/04 01:17:53;;;;;;;3.85;1.90;;;;;;;-145.87;100.00;54973.53;2091276;28;20045;-55
2023/11/04 01:18:54;;;;;;;3.50;2.22;;;;;;;-145.87;100.00;54973.53;2091073;28;20040;-55
2023/11/04 01:19:55;;;;;;;3.10;1.83;;;;;;;-145.87;100.00;54973.53;2090483;28;20045;-56
2023/11/04 01:20:56;;;;;;;6.15;2.28;;;;;;;-145.87;100.00;54973.53;2090529;28;20048;-55
2023/11/04 01:21:57;;;;;;;4.63;2.50;;;;;;;-145.87;100.00;54973.53;2082438;28;20049;-55
2023/11/04 01:22:58;;;;;;;4.45;2.05;;;;;;;-145.87;100.00;54973.53;2089809;28;20060;-55
2023/11/04 01:24:00;;;;;;;3.75;2.00;;;;;;;-145.87;100.00;54973.53;2091272;28;20045;-55
2023/11/04 01:25:02;;;;;;;6.97;2.78;;;;;;;-145.87;100.00;54973.53;2091032;28;20052;-55
2023/11/04 01:26:03;;;;;;;7.28;2.75;;;;;;;-145.87;100.00;54973.53;2091114;28;20060;-55
2023/11/04 01:27:08;;;;;;;5.00;2.30;;;;;;;-145.87;100.00;54973.53;2091147;28;20060;-56
2023/11/04 01:28:09;;;;;;;5.13;2.38;;;;;;;-145.87;100.00;54973.53;2091015;28;20140;-57
2023/11/04 01:29:11;;;;;;;3.97;2.13;;;;;;;-145.87;100.00;54973.53;2091092;28;20044;-56
2023/11/04 01:30:13;;;;;;;5.70;2.60;;;;;;;-145.87;100.00;54973.53;2090746;28;20076;-56
2023/11/04 01:31:14;;;;;;;4.38;2.45;;;;;;;-145.87;100.00;54973.53;2090196;28;20049;-54
2023/11/04 01:32:15;;;;;;;4.78;2.47;;;;;;;-145.87;100.00;54973.53;2090481;28;20049;-55
2023/11/04 01:33:16;;;;;;;5.88;2.60;;;;;;;-145.87;100.00;54973.53;2090512;28;20068;-54
2023/11/04 01:34:17;;;;;;;5.50;2.63;;;;;;;-145.87;100.00;54973.53;2090193;28;20069;-54
2023/11/04 01:35:19;;;;;;;5.88;2.67;;;;;;;-145.87;100.00;54973.53;2091302;28;20056;-55
2023/11/04 01:36:20;;;;;;;5.22;2.30;;;;;;;-145.87;100.00;54973.53;2091192;28;20397;-56
2023/11/04 01:37:25;;;;;;;4.25;2.50;;;;;;;-145.87;100.00;54973.53;2090957;28;20051;-55
2023/11/04 01:38:26;;;;;;;5.22;2.30;;;;;;;-145.87;100.00;54973.53;2091266;28;20480;-55
2023/11/04 01:39:27;;;;;;;7.10;2.72;;;;;;;-145.87;100.00;54973.53;2090988;28;20045;-55
2023/11/04 01:40:28;;;;;;;6.80;2.47;;;;;;;-145.87;100.00;54973.53;2090942;28;20041;-55
2023/11/04 01:41:29;;;;;;;5.15;2.38;;;;;;;-145.87;100.00;54973.53;2091315;28;20049;-57
2023/11/04 01:42:31;;;;;;;6.10;2.78;;;;;;;-145.87;100.00;54973.53;2090433;28;20045;-54
2023/11/04 01:43:32;;;;;;;5.25;2.85;;;;;;;-145.87;100.00;54973.53;2074266;28;20058;-55
2023/11/04 01:44:34;;;;;;;6.60;3.00;;;;;;;-145.87;100.00;54973.53;2082239;28;20041;-57
2023/11/04 01:45:35;;;;;;;5.38;2.53;;;;;;;-145.87;100.00;54973.53;2091101;28;20494;-55
2023/11/04 01:46:36;;;;;;;4.78;2.53;;;;;;;-145.87;100.00;54973.53;2090238;28;20037;-55
2023/11/04 01:47:40;;;;;;;4.72;2.75;;;;;;;-145.87;100.00;54973.53;2082247;28;20044;-55
2023/11/04 01:48:41;;;;;;;4.82;2.67;;;;;;;-145.87;100.00;54973.53;2089692;28;20052;-55
2023/11/04 01:49:43;;;;;;;4.15;2.30;;;;;;;-145.87;100.00;54973.53;2090485;28;20064;-56
2023/11/04 01:50:44;;;;;;;5.80;2.60;;;;;;;-145.87;100.00;54973.53;2090775;28;20396;-57
2023/11/04 01:51:45;;;;;;;4.60;2.35;;;;;;;-145.87;100.00;54973.53;2091053;28;20048;-56
2023/11/04 01:52:46;;;;;;;4.20;2.30;;;;;;;-145.87;100.00;54973.53;2090043;28;20036;-56
2023/11/04 01:53:49;;;;;;;3.95;2.20;;;;;;;-145.87;100.00;54973.53;2082340;28;20041;-56
2023/11/04 01:54:51;;;;;;;4.03;2.65;;;;;;;-145.87;100.00;54973.53;2082093;28;20042;-57
2023/11/04 01:55:52;;;;;;;4.03;2.35;;;;;;;-145.87;100.00;54973.53;2074142;28;20520;-57
2023/11/04 01:56:53;;;;;;;3.55;2.00;;;;;;;-145.87;100.00;54973.53;2074120;28;20050;-57
2023/11/04 01:57:55;;;;;;;4.97;2.45;;;;;;;-145.87;100.00;54973.53;2073602;28;20057;-56
2023/11/04 01:58:56;;;;;;;5.90;2.85;;;;;;;-145.87;100.00;54973.53;2081983;28;20093;-56
2023/11/04 01:59:57;;;;;;;4.82;2.28;;;;;;;-145.87;100.00;54973.53;2081666;28;20072;-57
2023/11/04 02:00:59;;;;;;;5.05;2.53;;;;;;;-145.87;100.00;54973.53;2081746;28;20049;-56
2023/11/04 02:02:00;;;;;;;4.35;2.50;;;;;;;-145.87;100.00;54973.53;2082027;28;20041;-57
2023/11/04 02:03:01;;;;;;;8.27;2.35;;;;;;;-145.87;100.00;54973.53;2074150;28;20050;-57
2023/11/04 02:04:03;;;;;;;3.55;2.22;;;;;;;-145.87;100.00;54973.53;2081679;28;20050;-57
2023/11/04 02:05:04;;;;;;;4.65;2.50;;;;;;;-145.87;100.00;54973.53;2090941;28;20048;-57
2023/11/04 02:06:06;;;;;;;5.05;2.00;;;;;;;-145.87;100.00;54973.53;2090225;28;20049;-56
2023/11/04 02:07:08;;;;;;;3.17;2.33;;;;;;;-145.87;100.00;54973.53;2082303;28;20060;-57
2023/11/04 02:08:09;;;;;;;5.75;2.38;;;;;;;-145.87;100.00;54973.53;2074008;28;20054;-57
2023/11/04 02:09:11;;;;;;;4.30;2.42;;;;;;;-145.87;100.00;54973.53;2081586;28;20049;-57
2023/11/04 02:10:13;;;;;;;2.65;1.80;;;;;;;-145.87;100.00;54973.53;2090125;28;20152;-57
2023/11/04 02:11:14;;;;;;;4.13;2.28;;;;;;;-145.87;100.00;54973.53;2089783;28;20060;-57
2023/11/04 02:12:15;;;;;;;4.90;2.42;;;;;;;-145.87;100.00;54973.53;2090765;28;20404;-56
2023/11/04 02:13:16;;;;;;;3.65;1.80;;;;;;;-145.87;100.00;54973.53;2089491;28;20053;-56
2023/11/04 02:14:17;;;;;;;3.88;1.92;;;;;;;-145.87;100.00;54973.53;2090149;28;20055;-55
2023/11/04 02:15:20;;;;;;;3.53;1.90;;;;;;;-145.87;100.00;54973.53;2089929;28;20052;-57
2023/11/04 02:16:22;;;;;;;7.50;2.50;;;;;;;-145.87;100.00;54973.53;2081590;28;20103;-57
2023/11/04 02:17:23;;;;;;;4.35;2.05;;;;;;;-145.87;100.00;54973.53;2081621;28;20393;-56
2023/11/04 02:18:24;;;;;;;3.88;1.85;;;;;;;-145.87;100.00;54973.53;2081509;28;20045;-56
2023/11/04 02:19:26;;;;;;;7.10;2.90;;;;;;;-145.87;100.00;54973.53;2081520;28;20052;-55
2023/11/04 02:20:27;;;;;;;5.28;3.03;;;;;;;-145.87;100.00;54973.53;2089945;28;20428;-56
2023/11/04 02:21:28;;;;;;;4.32;2.20;;;;;;;-145.87;100.00;54973.53;2089903;28;20090;-55
2023/11/04 02:22:29;;;;;;;4.38;1.95;;;;;;;-145.87;100.00;54973.53;2089894;28;20051;-55
2023/11/04 02:23:30;;;;;;;4.88;2.63;;;;;;;-145.87;100.00;54973.53;2090094;28;20040;-55
2023/11/04 02:24:32;;;;;;;5.38;2.72;;;;;;;-145.87;100.00;54973.53;2089525;28;20052;-57
2023/11/04 02:25:33;;;;;;;3.50;2.00;;;;;;;-145.87;100.00;54973.53;2090167;28;20512;-55
2023/11/04 02:26:35;;;;;;;5.30;2.40;;;;;;;-145.87;100.00;54973.53;2090346;28;20045;-59
2023/11/04 02:27:36;;;;;;;3.25;1.83;;;;;;;-145.87;100.00;54973.53;2089512;28;20052;-57
2023/11/04 02:28:37;;;;;;;7.22;2.50;;;;;;;-145.87;100.00;54973.53;2090538;28;20465;-57
2023/11/04 02:29:38;;;;;;;2.85;1.77;;;;;;;-145.87;100.00;54973.53;2090981;28;20056;-57
2023/11/04 02:30:39;;;;;;;3.80;2.28;;;;;;;-145.87;100.00;54973.53;2089877;28;20048;-56
2023/11/04 02:31:40;;;;;;;5.50;2.78;;;;;;;-145.87;100.00;54973.53;2089618;28;20508;-57
2023/11/04 02:32:42;;;;;;;4.32;1.98;;;;;;;-145.87;100.00;54973.53;2090548;28;20044;-57
2023/11/04 02:33:43;;;;;;;5.68;2.50;;;;;;;-145.87;100.00;54973.53;2090955;28;20045;-57
2023/11/04 02:34:44;;;;;;;5.65;2.20;;;;;;;-145.87;100.00;54973.53;2090538;28;20053;-56
2023/11/04 02:35:45;;;;;;;3.17;2.03;;;;;;;-145.87;100.00;54973.53;2089923;28;20052;-57
2023/11/04 02:36:46;;;;;;;5.25;2.50;;;;;;;-145.87;100.00;54973.53;2090245;28;20508;-57
2023/11/04 02:37:48;;;;;;;4.32;2.15;;;;;;;-145.87;100.00;54973.53;2090067;28;20070;-54
2023/11/04 02:38:49;;;;;;;5.53;2.70;;;;;;;-145.87;100.00;54973.53;2089472;28;20072;-57
2023/11/04 02:39:50;;;;;;;4.60;2.72;;;;;;;-145.87;100.00;54973.53;2090077;28;20045;-56
2023/11/04 02:40:51;;;;;;;5.88;2.30;;;;;;;-145.87;100.00;54973.53;2089814;28;20053;-55
2023/11/04 02:41:52;;;;;;;5.40;3.05;;;;;;;-145.87;100.00;54973.53;2090520;28;20041;-55
2023/11/04 02:42:53;;;;;;;3.90;2.38;;;;;;;-145.87;100.00;54973.53;2090512;28;20060;-55
2023/11/04 02:43:54;;;;;;;4.43;2.97;;;;;;;-145.87;100.00;54973.53;2089595;28;20049;-55
2023/11/04 02:44:56;;;;;;;4.45;2.85;;;;;;;-145.87;100.00;54973.53;2089912;28;20048;-54
2023/11/04 02:45:57;;;;;;;4.22;2.40;;;;;;;-145.87;100.00;54973.53;2090680;28;20401;-55
2023/11/04 02:46:58;;;;;;;7.20;2.65;;;;;;;-145.87;100.00;54973.53;2090384;28;20057;-55
2023/11/04 02:48:00;;;;;;;4.65;2.97;;;;;;;-145.87;100.00;54973.53;2090514;28;20052;-55
2023/11/04 02:49:02;;;;;;;3.50;2.50;;;;;;;-145.87;100.00;54973.53;2090587;28;20064;-55
2023/11/04 02:50:04;;;;;;;4.10;2.70;;;;;;;-145.87;100.00;54973.53;2089682;28;20079;-56
2023/11/04 02:51:05;;;;;;;4.75;2.80;;;;;;;-145.87;100.00;54973.53;2089250;28;20057;-57
2023/11/04 02:52:06;;;;;;;4.57;2.90;;;;;;;-145.87;100.00;54973.53;2090780;28;20060;-56
2023/11/04 02:53:07;;;;;;;5.75;2.90;;;;;;;-145.87;100.00;54973.53;2090017;28;20476;-55
2023/11/04 02:54:08;;;;;;;5.45;2.85;;;;;;;-145.87;100.00;54973.53;2089944;28;20068;-55
2023/11/04 02:55:09;;;;;;;5.55;2.88;;;;;;;-145.87;100.00;54973.53;2089811;28;20049;-55
2023/11/04 02:56:14;;;;;;;6.88;3.10;;;;;;;-145.87;100.00;54973.53;2090356;28;20049;-55
2023/11/04 02:57:15;;;;;;;4.97;2.65;;;;;;;-145.87;100.00;54973.53;2090573;28;20053;-55
2023/11/04 02:58:16;;;;;;;6.55;3.03;;;;;;;-145.87;100.00;54973.53;2090077;28;20184;-55
2023/11/04 02:59:17;;;;;;;5.57;3.03;;;;;;;-145.87;100.00;54973.53;2089778;28;20064;-55
2023/11/04 03:00:18;;;;;;;3.67;2.67;;;;;;;-145.87;100.00;54973.53;2089653;28;20057;-55
2023/11/04 03:01:19;;;;;;;4.97;2.67;;;;;;;-145.87;100.00;54973.53;2089967;28;20055;-55
2023/11/04 03:02:21;;;;;;;9.30;3.00;;;;;;;-145.87;100.00;54973.53;2089867;28;20053;-54
2023/11/04 03:03:22;;;;;;;4.57;2.80;;;;;;;-145.87;100.00;54973.53;2081947;28;20403;-55
2023/11/04 03:04:25;;;;;;;4.63;2.95;;;;;;;-145.87;100.00;54973.53;2090095;28;20052;-55
2023/11/04 03:05:26;;;;;;;4.78;3.15;;;;;;;-145.87;100.00;54973.53;2090286;28;20056;-55
2023/11/04 03:06:27;;;;;;;4.70;3.20;;;;;;;-145.87;100.00;54973.53;2089961;28;20487;-54
2023/11/04 03:07:28;;;;;;;7.30;3.25;;;;;;;-145.87;100.00;54973.53;2089497;28;20056;-55
2023/11/04 03:08:30;;;;;;;5.60;3.35;;;;;;;-145.87;100.00;54973.53;2090028;28;20053;-54
2023/11/04 03:09:31;;;;;;;5.57;3.17;;;;;;;-145.87;100.00;54973.53;2090390;28;20041;-55
2023/11/04 03:10:33;;;;;;;5.72;3.20;;;;;;;-145.87;100.00;54973.53;2089676;28;20057;-55
2023/11/04 03:11:34;;;;;;;5.20;3.28;;;;;;;-145.87;100.00;54973.53;2089908;28;20052;-55
2023/11/04 03:12:35;;;;;;;5.20;3.15;;;;;;;-145.87;100.00;54973.53;2090582;28;20060;-55
2023/11/04 03:13:36;;;;;;;6.75;3.83;;;;;;;-145.87;100.00;54973.53;2090337;28;20044;-55
2023/11/04 03:14:37;;;;;;;6.88;3.60;;;;;;;-145.87;100.00;54973.53;2090167;28;20045;-55
2023/11/04 03:15:38;;;;;;;4.50;2.35;;;;;;;-145.87;100.00;54973.53;2089726;28;20044;-55
2023/11/04 03:16:40;;;;;;;6.22;2.95;;;;;;;-145.87;100.00;54973.53;2081620;28;20421;-55
2023/11/04 03:17:41;;;;;;;4.75;2.83;;;;;;;-145.87;100.00;54973.53;2081369;28;20064;-56
2023/11/04 03:18:43;;;;;;;7.10;3.45;;;;;;;-145.87;100.00;54973.53;2081404;28;20421;-55
2023/11/04 03:19:47;;;;;;;4.85;3.30;;;;;;;-145.87;100.00;54973.53;2089878;28;20488;-55
2023/11/04 03:20:48;;;;;;;6.65;3.65;;;;;;;-145.87;100.00;54973.53;2088908;28;20037;-55
2023/11/04 03:21:50;;;;;;;5.90;3.30;;;;;;;-145.87;100.00;54973.53;2081385;28;20044;-55
2023/11/04 03:22:51;;;;;;;5.07;3.13;;;;;;;-145.87;100.00;54973.53;2089161;28;20512;-56
2023/11/04 03:23:52;;;;;;;7.10;3.17;;;;;;;-145.87;100.00;54973.53;2089473;28;20057;-55
2023/11/04 03:24:53;;;;;;;5.40;3.28;;;;;;;-145.87;100.00;54973.53;2081597;28;20121;-55
2023/11/04 03:25:54;;;;;;;5.80;3.17;;;;;;;-145.87;100.00;54973.53;2081301;28;20094;-55
2023/11/04 03:26:57;;;;;;;5.63;3.35;;;;;;;-145.87;100.00;54973.53;2081369;28;20529;-54
2023/11/04 03:27:59;;;;;;;5.63;3.28;;;;;;;-145.87;100.00;54973.53;2081553;28;20428;-55
2023/11/04 03:29:00;;;;;;;5.30;3.28;;;;;;;-145.87;100.00;54973.53;2081448;28;20057;-55
2023/11/04 03:30:01;;;;;;;4.90;3.38;;;;;;;-145.87;100.00;54973.53;2089530;28;20049;-54
2023/11/04 03:31:03;;;;;;;4.30;3.03;;;;;;;-145.87;100.00;54973.53;2098000;28;20052;-55
2023/11/04 03:32:05;;;;;;;5.50;2.90;;;;;;;-145.87;100.00;54973.53;2090067;28;20056;-55
2023/11/04 03:33:07;;;;;;;5.60;3.38;;;;;;;-145.87;100.00;54973.53;2090236;28;20056;-55
2023/11/04 03:34:09;;;;;;;5.30;3.25;;;;;;;-145.87;100.00;54973.53;2090052;28;20052;-57
2023/11/04 03:35:10;;;;;;;5.22;3.20;;;;;;;-145.87;100.00;54973.53;2089022;28;20532;-57
2023/11/04 03:36:11;;;;;;;7.05;3.50;;;;;;;-145.87;100.00;54973.53;2089125;28;20060;-57
2023/11/04 03:37:12;;;;;;;4.35;3.20;;;;;;;-145.87;100.00;54973.53;2081126;28;20052;-57
2023/11/04 03:38:13;;;;;;;4.68;2.80;;;;;;;-145.87;100.00;54973.53;2081257;28;20060;-57
2023/11/04 03:39:14;;;;;;;5.28;3.30;;;;;;;-145.87;100.00;54973.53;2090457;28;20497;-57
2023/11/04 03:40:16;;;;;;;6.05;2.88;;;;;;;-145.87;100.00;54973.53;2089261;28;20056;-58
2023/11/04 03:41:18;;;;;;;4.40;2.85;;;;;;;-145.87;100.00;54973.53;2081640;28;20064;-56
2023/11/04 03:42:19;;;;;;;4.50;2.30;;;;;;;-145.87;100.00;54973.53;2089580;28;20044;-57
2023/11/04 03:43:20;;;;;;;4.40;2.80;;;;;;;-145.87;100.00;54973.53;2090064;28;20064;-56
2023/11/04 03:44:21;;;;;;;4.97;2.88;;;;;;;-145.87;100.00;54973.53;2090107;28;20048;-57
2023/11/04 03:45:23;;;;;;;3.13;2.00;;;;;;;-145.87;100.00;54973.53;2089455;28;20052;-55
2023/11/04 03:46:24;;;;;;;3.60;1.92;;;;;;;-145.87;100.00;54973.53;2089534;28;20064;-55
2023/11/04 03:47:25;;;;;;;3.90;2.38;;;;;;;-145.87;100.00;54973.53;2090114;28;20041;-54
2023/11/04 03:48:26;;;;;;;3.45;2.10;;;;;;;-145.87;100.00;54973.53;2090094;28;20045;-55
2023/11/04 03:49:27;;;;;;;3.58;2.00;;;;;;;-145.87;100.00;54973.53;2090192;28;20527;-56
2023/11/04 03:50:28;;;;;;;4.90;1.73;;;;;;;-145.87;100.00;54973.53;2089541;28;20045;-55
2023/11/04 03:51:29;;;;;;;3.67;2.00;;;;;;;-145.87;100.00;54973.53;2089440;28;20048;-55
2023/11/04 03:52:31;;;;;;;4.18;2.28;;;;;;;-145.87;100.00;54973.53;2089928;28;20048;-55
2023/11/04 03:53:32;;;;;;;4.55;2.30;;;;;;;-145.87;100.00;54973.53;2090212;28;20049;-55
2023/11/04 03:54:35;;;;;;;4.57;1.73;;;;;;;-145.87;100.00;54973.53;2090319;28;20040;-55
2023/11/04 03:55:36;;;;;;;3.58;2.15;;;;;;;-145.87;100.00;54973.53;2090276;28;20051;-55
2023/11/04 03:56:37;;;;;;;2.88;1.83;;;;;;;-145.87;100.00;54973.53;2090187;28;20033;-56
2023/11/04 03:57:38;;;;;;;4.10;1.80;;;;;;;-145.87;100.00;54973.53;2090494;28;20053;-59
2023/11/04 03:58:39;;;;;;;2.80;1.95;;;;;;;-145.87;100.00;54973.53;2089979;28;20487;-55
2023/11/04 03:59:40;;;;;;;4.45;2.00;;;;;;;-145.87;100.00;54973.53;2090120;28;20052;-59
2023/11/04 04:00:41;;;;;;;3.90;1.80;;;;;;;-145.87;100.00;54973.53;2090407;28;20041;-55
2023/11/04 04:01:42;;;;;;;3.13;1.88;;;;;;;-145.87;100.00;54973.53;2090304;28;20037;-55
2023/11/04 04:02:43;;;;;;;2.38;1.50;;;;;;;-145.87;100.00;54973.53;2090497;28;20044;-60
2023/11/04 04:03:45;;;;;;;3.45;1.70;;;;;;;-145.87;100.00;54973.53;2090564;28;20400;-60
2023/11/04 04:04:46;;;;;;;3.50;1.55;;;;;;;-145.87;100.00;54973.53;2090012;28;20040;-55
2023/11/04 04:05:47;;;;;;;3.28;1.58;;;;;;;-145.87;100.00;54973.53;2090160;28;20068;-55
2023/11/04 04:06:50;;;;;;;5.05;2.08;;;;;;;-145.87;100.00;54973.53;2090197;28;20052;-58
2023/11/04 04:07:52;;;;;;;3.33;1.60;;;;;;;-145.87;100.00;54973.53;2090179;28;20053;-57
2023/11/04 04:08:53;;;;;;;4.15;1.75;;;;;;;-145.87;100.00;54973.53;2090247;28;20053;-57
2023/11/04 04:09:54;;;;;;;4.65;1.77;;;;;;;-145.87;100.00;54973.53;2090482;28;20056;-57
2023/11/04 04:10:55;;;;;;;1.95;1.27;;;;;;;-145.87;100.00;54973.53;2090203;28;20044;-56
2023/11/04 04:11:56;;;;;;;2.53;1.63;;;;;;;-145.87;100.00;54973.53;2089960;28;20047;-57
2023/11/04 04:12:57;;;;;;;3.22;1.75;;;;;;;-145.87;100.00;54973.53;2090360;28;20064;-57
2023/11/04 04:13:58;;;;;;;2.58;1.55;;;;;;;-145.87;100.00;54973.53;2089936;28;20072;-57
2023/11/04 04:15:00;;;;;;;6.93;1.75;;;;;;;-145.87;100.00;54973.53;2089966;28;20057;-55
2023/11/04 04:16:02;;;;;;;3.63;1.65;;;;;;;-145.87;100.00;54973.53;2090039;28;20049;-56
2023/11/04 04:17:03;;;;;;;2.50;1.50;;;;;;;-145.87;100.00;54973.53;2089733;28;20052;-55
2023/11/04 04:18:04;;;;;;;2.08;1.30;;;;;;;-145.87;100.00;54973.53;2089890;28;20060;-57
2023/11/04 04:19:05;;;;;;;5.07;1.70;;;;;;;-145.87;100.00;54973.53;2090005;28;20180;-57
2023/11/04 04:20:07;;;;;;;3.33;2.03;;;;;;;-145.87;100.00;54973.53;2090024;28;20048;-56
2023/11/04 04:21:08;;;;;;;1.80;1.25;;;;;;;-145.87;100.00;54973.53;2089750;28;20595;-56
2023/11/04 04:22:09;;;;;;;2.65;1.42;;;;;;;-145.87;100.00;54973.53;2089042;28;20045;-55
2023/11/04 04:23:10;;;;;;;3.50;1.50;;;;;;;-145.87;100.00;54973.53;2080701;28;20048;-55
2023/11/04 04:24:11;;;;;;;2.80;1.60;;;;;;;-145.87;100.00;54973.53;2089143;28;20045;-55
2023/11/04 04:25:13;;;;;;;3.15;1.70;;;;;;;-145.87;100.00;54973.53;2089705;28;20049;-55
2023/11/04 04:26:21;;;;;;;2.15;1.35;;;;;;;-145.87;100.00;54973.53;2089587;28;20600;-55
2023/11/04 04:27:22;;;;;;;3.08;1.52;;;;;;;-145.87;100.00;54973.53;2089475;28;20056;-55
2023/11/04 04:28:23;;;;;;;2.67;1.50;;;;;;;-145.87;100.00;54973.53;2089625;28;20049;-56
2023/11/04 04:29:24;;;;;;;2.60;1.40;;;;;;;-145.87;100.00;54973.53;2089917;28;20473;-55
2023/11/04 04:30:25;;;;;;;2.55;1.40;;;;;;;-145.87;100.00;54973.53;2089980;28;20053;-55
2023/11/04 04:31:27;;;;;;;3.35;1.42;;;;;;;-145.87;100.00;54973.53;2090062;28;20057;-55
2023/11/04 04:32:28;;;;;;;2.92;1.30;;;;;;;-145.87;100.00;54973.53;2091636;28;20049;-55
2023/11/04 04:33:29;;;;;;;3.53;1.58;;;;;;;-145.87;100.00;54973.53;2091459;28;20489;-55
2023/11/04 04:34:30;;;;;;;2.53;1.48;;;;;;;-145.87;100.00;54973.53;2090891;28;20033;-56
2023/11/04 04:35:32;;;;;;;2.55;1.30;;;;;;;-145.87;100.00;54973.53;2090915;28;20049;-55
2023/11/04 04:36:33;;;;;;;2.28;1.27;;;;;;;-145.87;100.00;54973.53;2091775;28;20048;-57
2023/11/04 04:37:34;;;;;;;2.50;1.05;;;;;;;-145.87;100.00;54973.53;2091640;28;20473;-57
2023/11/04 04:38:36;;;;;;;2.70;1.52;;;;;;;-145.87;100.00;54973.53;2091529;28;20044;-57